Time;durP1;ratioP1;P1;durP2;ratioP2;P2;SDS_P1;SDS_P2;PMS_P1;PMS_P2;Temp;Humidity;BMP_temperature;BMP_pressure;BME280_temperature;BME280_humidity;BME280_pressure;Samples;Min_cycle;Max_cycle;Signal;HPM_P1;HPM_P2
2021/01/11 00:01:02;;;;;;;26.35;17.60;;;3.70;91.70;;;;;;5059456;28;20032;-86
2021/01/11 00:03:41;;;;;;;27.98;17.23;;;3.70;91.70;;;;;;5059698;28;20028;-86
2021/01/11 00:06:21;;;;;;;23.92;16.40;;;3.70;91.70;;;;;;5060122;28;20028;-86
2021/01/11 00:09:07;;;;;;;;;;;;;;;;;;;;;
2021/01/11 00:12:04;;;;;;;25.38;17.88;;;3.70;91.70;;;;;;5078331;28;20024;-86
2021/01/11 00:14:47;;;;;;;27.48;18.58;;;3.70;91.70;;;;;;5054003;28;20090;-86
2021/01/11 00:17:41;;;;;;;27.92;18.38;;;3.70;91.70;;;;;;5080255;28;20024;-86
2021/01/11 00:20:26;;;;;;;28.15;18.67;;;3.70;91.70;;;;;;5033249;28;20558;-86
2021/01/11 00:23:08;;;;;;;30.15;20.05;;;3.70;91.70;;;;;;5078865;28;20021;-86
2021/01/11 00:25:42;;;;;;;29.33;19.92;;;3.70;91.70;;;;;;5078915;28;20016;-87
2021/01/11 00:28:10;;;;;;;30.52;20.08;;;3.70;91.70;;;;;;5062961;28;20042;-86
2021/01/11 00:30:40;;;;;;;30.10;19.20;;;3.70;91.80;;;;;;5078820;28;20024;-86
2021/01/11 00:36:37;;;;;;;;;;;;;;;;;;;;;
2021/01/11 00:39:16;;;;;;;;;;;;;;;;;;;;;
2021/01/11 00:41:56;;;;;;;29.88;19.02;;;3.70;91.80;;;;;;5097226;28;20026;-87
2021/01/11 00:48:04;;;;;;;33.38;20.05;;;3.70;91.80;;;;;;5081752;28;20186;-86
2021/01/11 00:50:35;;;;;;;30.52;19.85;;;3.70;91.80;;;;;;5091867;28;20028;-86
2021/01/11 00:53:13;;;;;;;27.90;18.48;;;3.70;91.80;;;;;;5078126;28;20111;-86
2021/01/11 00:55:51;;;;;;;;;;;;;;;;;;;;;
2021/01/11 00:58:29;;;;;;;;;;;;;;;;;;;;;
2021/01/11 01:01:12;;;;;;;36.70;23.17;;;3.70;91.80;;;;;;5079864;28;20027;-87
2021/01/11 01:03:43;;;;;;;34.10;21.20;;;3.70;92.10;;;;;;5063238;28;20020;-86
2021/01/11 01:06:20;;;;;;;33.60;21.50;;;3.70;91.80;;;;;;5077462;28;20028;-87
2021/01/11 01:08:52;;;;;;;33.72;21.73;;;3.70;91.80;;;;;;5078298;28;20016;-86
2021/01/11 01:11:32;;;;;;;36.60;22.63;;;3.70;91.80;;;;;;5077484;28;20020;-86
2021/01/11 01:14:02;;;;;;;36.63;23.10;;;3.70;91.80;;;;;;5063399;28;20032;-86
2021/01/11 01:16:55;;;;;;;39.70;23.65;;;3.70;91.90;;;;;;5078437;28;20030;-86
2021/01/11 01:19:39;;;;;;;;;;;;;;;;;;;;;
2021/01/11 01:22:26;;;;;;;39.45;23.70;;;3.70;92.10;;;;;;5064733;28;20035;-86
2021/01/11 01:24:57;;;;;;;36.75;22.48;;;3.70;91.90;;;;;;5063376;28;20411;-86
2021/01/11 01:27:39;;;;;;;38.40;22.35;;;3.60;91.90;;;;;;5096165;28;20444;-86
2021/01/11 01:30:30;;;;;;;37.00;23.17;;;3.70;91.90;;;;;;5077248;28;20024;-86
2021/01/11 01:33:00;;;;;;;38.15;24.55;;;3.70;91.90;;;;;;5077351;28;20027;-86
2021/01/11 01:35:40;;;;;;;;;;;;;;;;;;;;;
2021/01/11 01:38:26;;;;;;;38.80;24.30;;;3.70;91.90;;;;;;5095649;28;20270;-86
2021/01/11 01:41:06;;;;;;;39.17;21.77;;;3.60;91.90;;;;;;5062401;28;20024;-86
2021/01/11 01:46:56;;;;;;;36.97;23.30;;;3.60;91.90;;;;;;5080875;28;20043;-86
2021/01/11 01:49:42;;;;;;;41.67;24.42;;;3.60;91.90;;;;;;5077236;28;20024;-86
2021/01/11 01:52:34;;;;;;;42.85;24.67;;;3.60;91.90;;;;;;5076450;28;20031;-86
2021/01/11 01:55:25;;;;;;;;;;;;;;;;;;;;;
2021/01/11 01:58:08;;;;;;;;;;;;;;;;;;;;;
2021/01/11 02:00:53;;;;;;;;;;;;;;;;;;;;;
2021/01/11 02:03:39;;;;;;;39.95;24.60;;;3.60;92.00;;;;;;5095513;28;20016;-87
2021/01/11 02:06:26;;;;;;;40.75;24.65;;;3.60;92.00;;;;;;5076879;28;20020;-86
2021/01/11 02:09:41;;;;;;;;;;;;;;;;;;;;;
2021/01/11 02:15:41;;;;;;;41.05;24.30;;;3.60;92.30;;;;;;5095151;28;20024;-86
2021/01/11 02:18:35;;;;;;;;;;;;;;;;;;;;;
2021/01/11 02:21:38;;;;;;;41.67;24.38;;;3.60;92.10;;;;;;5095335;28;20347;-86
2021/01/11 02:25:01;;;;;;;;;;;;;;;;;;;;;
2021/01/11 02:27:56;;;;;;;45.40;25.30;;;3.70;92.10;;;;;;5095544;28;20028;-86
2021/01/11 02:31:00;;;;;;;45.13;25.58;;;3.70;92.10;;;;;;5065328;28;20340;-86
2021/01/11 02:33:49;;;;;;;46.42;26.83;;;3.60;92.00;;;;;;5026041;28;20044;-86
2021/01/11 02:39:20;;;;;;;48.22;27.08;;;3.60;92.10;;;;;;5061155;28;20063;-86
2021/01/11 02:41:58;;;;;;;51.50;28.80;;;3.60;92.10;;;;;;5055528;28;20036;-86
2021/01/11 02:45:08;;;;;;;51.53;28.55;;;3.60;92.10;;;;;;5039644;28;20032;-87
2021/01/11 02:47:46;;;;;;;;;;;;;;;;;;;;;
2021/01/11 02:50:30;;;;;;;54.03;29.55;;;3.60;92.10;;;;;;5074622;28;20031;-86
2021/01/11 02:53:23;;;;;;;48.72;27.33;;;3.60;92.10;;;;;;5041739;28;20380;-87
2021/01/11 02:56:07;;;;;;;47.88;26.80;;;3.60;92.10;;;;;;5056264;28;20020;-86
2021/01/11 02:59:23;;;;;;;47.38;27.33;;;3.60;92.10;;;;;;5056151;28;20052;-86
2021/01/11 03:02:04;;;;;;;46.38;26.30;;;3.60;92.10;;;;;;5056036;28;20020;-87
2021/01/11 03:04:36;;;;;;;44.30;26.25;;;3.60;92.10;;;;;;5056661;28;20113;-86
2021/01/11 03:07:22;;;;;;;48.17;28.05;;;3.60;92.10;;;;;;5057133;28;20040;-86
2021/01/11 03:09:56;;;;;;;48.65;27.60;;;3.60;92.10;;;;;;5025139;28;20032;-86
2021/01/11 03:12:58;;;;;;;48.58;28.27;;;3.60;92.10;;;;;;5040637;28;20046;-87
2021/01/11 03:15:33;;;;;;;;;;;3.60;92.10;;;;;;5042875;28;20402;-86
2021/01/11 03:18:16;;;;;;;53.83;28.83;;;3.60;92.00;;;;;;5039217;28;19904;-87
2021/01/11 03:20:46;;;;;;;53.90;28.70;;;3.60;92.00;;;;;;5056590;28;20441;-87
2021/01/11 03:23:27;;;;;;;;;;;;;;;;;;;;;
2021/01/11 03:26:04;;;;;;;50.08;28.63;;;3.60;92.00;;;;;;5058458;28;20032;-87
2021/01/11 03:29:09;;;;;;;;;;;;;;;;;;;;;
2021/01/11 03:31:38;;;;;;;56.35;30.83;;;3.50;92.00;;;;;;5057900;28;20040;-86
2021/01/11 03:34:15;;;;;;;52.53;28.83;;;3.50;92.00;;;;;;5055535;28;20391;-86
2021/01/11 03:37:15;;;;;;;50.65;27.38;;;3.50;92.00;;;;;;5038989;28;20477;-86
2021/01/11 03:40:06;;;;;;;47.13;26.23;;;3.40;92.00;;;;;;5056993;28;20041;-86
2021/01/11 03:42:59;;;;;;;50.35;26.63;;;3.50;92.10;;;;;;5072128;28;20119;-87
2021/01/11 03:45:50;;;;;;;56.92;27.30;;;3.50;92.10;;;;;;5072963;28;20024;-86
2021/01/11 03:48:32;;;;;;;53.67;28.13;;;3.50;92.10;;;;;;5032822;28;20087;-86
2021/01/11 03:51:23;;;;;;;55.33;28.25;;;3.50;92.10;;;;;;5039438;28;20033;-87
2021/01/11 03:54:29;;;;;;;;;;;;;;;;;;;;;
2021/01/11 03:57:00;;;;;;;55.03;28.75;;;3.50;92.10;;;;;;5040442;28;20036;-86
2021/01/11 03:59:57;;;;;;;55.78;28.20;;;3.40;92.10;;;;;;5023706;28;20032;-86
2021/01/11 04:02:43;;;;;;;;;;;;;;;;;;;;;
2021/01/11 04:05:30;;;;;;;58.65;28.17;;;3.40;92.10;;;;;;5040779;28;20021;-86
2021/01/11 04:08:16;;;;;;;55.97;26.00;;;3.40;92.20;;;;;;5038836;28;20025;-85
2021/01/11 04:11:12;;;;;;;56.03;27.55;;;3.40;92.10;;;;;;5038585;28;20033;-86
2021/01/11 04:13:56;;;;;;;52.95;25.38;;;3.40;92.20;;;;;;5026436;28;20472;-86
2021/01/11 04:16:41;;;;;;;;;;;;;;;;;;;;;
2021/01/11 04:19:10;;;;;;;52.20;27.20;;;3.40;92.20;;;;;;5040394;28;20024;-87
2021/01/11 04:21:56;;;;;;;;;;;;;;;;;;;;;
2021/01/11 04:24:34;;;;;;;55.05;26.20;;;3.40;92.30;;;;;;5057251;28;20017;-86
2021/01/11 04:27:15;;;;;;;;;;;;;;;;;;;;;
2021/01/11 04:30:01;;;;;;;52.33;24.98;;;3.40;92.30;;;;;;5056660;28;20024;-87
2021/01/11 04:33:08;;;;;;;46.58;23.75;;;3.40;92.30;;;;;;5039035;28;20025;-87
2021/01/11 04:35:41;;;;;;;53.53;24.83;;;3.30;92.30;;;;;;5056010;28;20079;-86
2021/01/11 04:38:19;;;;;;;;;;;;;;;;;;;;;
2021/01/11 04:41:17;;;;;;;52.88;26.15;;;3.40;92.30;;;;;;5040579;28;20029;-87
2021/01/11 04:46:54;;;;;;;47.80;22.90;;;3.30;92.40;;;;;;5056380;28;20037;-86
2021/01/11 04:49:34;;;;;;;;;;;;;;;;;;;;;
2021/01/11 04:52:17;;;;;;;;;;;;;;;;;;;;;
2021/01/11 04:55:08;;;;;;;54.60;25.25;;;3.30;92.40;;;;;;5056909;28;20013;-87
2021/01/11 04:58:21;;;;;;;;;;;;;;;;;;;;;
2021/01/11 05:01:10;;;;;;;45.72;22.55;;;3.30;92.40;;;;;;5056214;28;20351;-86
2021/01/11 05:03:50;;;;;;;;;;;;;;;;;;;;;
2021/01/11 05:06:22;;;;;;;47.95;22.50;;;3.30;92.50;;;;;;5056397;28;20017;-86
2021/01/11 05:09:32;;;;;;;;;;;;;;;;;;;;;
2021/01/11 05:15:39;;;;;;;55.15;26.33;;;3.30;92.50;;;;;;5045200;28;20459;-86
2021/01/11 05:18:44;;;;;;;;;;;;;;;;;;;;;
2021/01/11 05:22:19;;;;;;;;;;;;;;;;;;;;;
2021/01/11 05:27:58;;;;;;;47.22;23.27;;;3.20;92.60;;;;;;5041508;28;20400;-86
2021/01/11 05:31:11;;;;;;;;;;;;;;;;;;;;;
2021/01/11 05:34:14;;;;;;;53.72;26.10;;;3.20;92.60;;;;;;5043445;28;20017;-87
2021/01/11 05:40:30;;;;;;;54.17;26.10;;;3.20;92.70;;;;;;5043974;28;20056;-85
2021/01/11 05:43:22;;;;;;;53.83;24.63;;;3.20;92.70;;;;;;5075219;28;20119;-89
2021/01/11 05:46:11;;;;;;;;;;;;;;;;;;;;;
2021/01/11 05:49:25;;;;;;;;;;;;;;;;;;;;;
2021/01/11 05:55:48;;;;;;;;;;;;;;;;;;;;;
2021/01/11 05:58:20;;;;;;;60.58;28.92;;;3.20;92.80;;;;;;5059962;28;20460;-87
2021/01/11 06:01:01;;;;;;;;;;;;;;;;;;;;;
2021/01/11 06:03:44;;;;;;;;;;;;;;;;;;;;;
2021/01/11 06:06:20;;;;;;;65.93;31.10;;;3.20;92.80;;;;;;5075137;28;20350;-87
2021/01/11 06:09:00;;;;;;;;;;;;;;;;;;;;;
2021/01/11 06:11:39;;;;;;;64.82;32.40;;;3.20;92.90;;;;;;5074800;28;20028;-87
2021/01/11 06:14:11;;;;;;;69.90;34.22;;;3.30;92.90;;;;;;5055629;28;20094;-87
2021/01/11 06:16:59;;;;;;;71.63;34.75;;;3.30;92.90;;;;;;5037621;28;20017;-87
2021/01/11 06:19:40;;;;;;;67.13;34.17;;;3.30;93.00;;;;;;5036465;28;20032;-85
2021/01/11 06:22:18;;;;;;;69.30;35.53;;;3.30;93.00;;;;;;5036763;28;20021;-85
2021/01/11 06:24:56;;;;;;;62.03;32.65;;;3.30;93.00;;;;;;5053250;28;20263;-86
2021/01/11 06:27:35;;;;;;;;;;;;;;;;;;;;;
2021/01/11 06:30:57;;;;;;;61.03;31.85;;;3.30;93.00;;;;;;5054974;28;20051;-87
2021/01/11 06:33:38;;;;;;;60.72;32.67;;;3.40;93.00;;;;;;5053346;28;20064;-85
2021/01/11 06:36:35;;;;;;;64.20;32.95;;;3.40;93.00;;;;;;5036645;28;20036;-87
2021/01/11 06:39:37;;;;;;;61.15;33.60;;;3.40;93.00;;;;;;5032227;28;20045;-87
2021/01/11 06:42:20;;;;;;;68.40;35.97;;;3.40;93.00;;;;;;5000397;28;20061;-86
2021/01/11 06:44:54;;;;;;;61.03;34.42;;;3.40;93.00;;;;;;5036765;28;20025;-85
2021/01/11 06:47:52;;;;;;;60.78;35.03;;;3.40;93.00;;;;;;5036018;28;20048;-85
2021/01/11 06:50:37;;;;;;;;;;;;;;;;;;;;;
2021/01/11 06:53:20;;;;;;;63.53;36.53;;;3.40;93.00;;;;;;5053825;28;20031;-85
2021/01/11 06:56:13;;;;;;;61.60;36.13;;;3.40;93.10;;;;;;5036251;28;20044;-85
2021/01/11 06:58:56;;;;;;;;;;;;;;;;;;;;;
2021/01/11 07:01:45;;;;;;;58.78;33.47;;;3.40;93.10;;;;;;5053628;28;20032;-86
2021/01/11 07:04:37;;;;;;;59.05;34.78;;;3.40;93.10;;;;;;5036172;28;20440;-85
2021/01/11 07:07:46;;;;;;;51.90;32.22;;;3.40;93.10;;;;;;5036117;28;20075;-86
2021/01/11 07:10:25;;;;;;;50.85;30.95;;;3.40;93.10;;;;;;5035217;28;20039;-86
2021/01/11 07:16:45;;;;;;;46.60;29.00;;;3.40;93.10;;;;;;5001871;28;20033;-86
2021/01/11 07:19:45;;;;;;;54.85;32.10;;;3.40;93.10;;;;;;4995336;28;20022;-86
2021/01/11 07:22:12;;;;;;;46.92;29.67;;;3.40;93.10;;;;;;5052843;28;20353;-85
2021/01/11 07:24:43;;;;;;;52.47;33.70;;;3.40;93.10;;;;;;5035457;28;20021;-85
2021/01/11 07:27:11;;;;;;;45.17;29.75;;;3.40;93.10;;;;;;5035960;28;20021;-85
2021/01/11 07:30:03;;;;;;;46.05;29.30;;;3.50;93.10;;;;;;5035576;28;20036;-85
2021/01/11 07:32:59;;;;;;;;;;;;;;;;;;;;;
2021/01/11 07:35:43;;;;;;;46.78;29.05;;;3.50;93.10;;;;;;5053503;28;20031;-86
2021/01/11 07:38:18;;;;;;;41.45;27.63;;;3.50;93.10;;;;;;5054028;28;20025;-87
2021/01/11 07:41:27;;;;;;;42.70;27.35;;;3.50;93.40;;;;;;5052948;28;20060;-86
2021/01/11 07:45:07;;;;;;;;;;;;;;;;;;;;;
2021/01/11 07:47:45;;;;;;;43.92;29.00;;;3.50;93.20;;;;;;5068263;28;20036;-88
2021/01/11 07:50:26;;;;;;;;;;;;;;;;;;;;;
2021/01/11 07:53:10;;;;;;;44.55;28.17;;;3.40;93.20;;;;;;5052907;28;20035;-87
2021/01/11 07:56:13;;;;;;;41.10;27.42;;;3.50;93.20;;;;;;5053381;28;20024;-86
2021/01/11 07:59:16;;;;;;;39.33;26.25;;;3.50;93.20;;;;;;5059364;28;20088;-86
2021/01/11 08:01:56;;;;;;;;;;;;;;;;;;;;;
2021/01/11 08:14:19;;;;;;;38.85;26.10;;;3.50;93.10;;;;;;5023777;28;20029;-86
2021/01/11 08:20:48;;;;;;;40.75;26.48;;;3.50;93.10;;;;;;5058715;28;20039;-87
2021/01/11 08:23:41;;;;;;;38.10;25.02;;;3.50;93.10;;;;;;5051221;28;20036;-86
2021/01/11 08:29:48;;;;;;;34.83;24.00;;;3.50;93.10;;;;;;5053369;28;20025;-86
2021/01/11 08:32:38;;;;;;;;;;;;;;;;;;;;;
2021/01/11 08:35:53;;;;;;;34.47;24.60;;;3.50;93.10;;;;;;5055327;28;20441;-87
2021/01/11 08:38:57;;;;;;;40.55;25.73;;;3.60;93.20;;;;;;5020152;28;20041;-86
2021/01/11 08:42:03;;;;;;;;;;;;;;;;;;;;;
2021/01/11 08:44:55;;;;;;;42.30;27.23;;;3.60;93.10;;;;;;5076312;28;20020;-86
2021/01/11 08:47:32;;;;;;;35.30;23.65;;;3.50;93.10;;;;;;5050603;28;20016;-87
2021/01/11 08:53:47;;;;;;;;;;;;;;;;;;;;;
2021/01/11 08:56:15;;;;;;;33.97;24.00;;;3.60;93.10;;;;;;5076734;28;20347;-86
2021/01/11 08:59:02;;;;;;;31.80;21.75;;;3.60;93.10;;;;;;5074831;28;20352;-86
2021/01/11 09:01:48;;;;;;;;;;;;;;;;;;;;;
2021/01/11 09:05:24;;;;;;;;;;;;;;;;;;;;;
2021/01/11 09:09:00;;;;;;;36.83;24.83;;;3.60;93.10;;;;;;4994599;28;20014;-86
2021/01/11 09:11:37;;;;;;;37.33;23.85;;;3.60;93.10;;;;;;5025123;28;20096;-85
2021/01/11 09:14:52;;;;;;;35.40;23.35;;;3.60;93.10;;;;;;5062489;28;20027;-85
2021/01/11 09:20:50;;;;;;;33.75;21.58;;;3.60;93.10;;;;;;5076592;28;20032;-87
2021/01/11 09:23:30;;;;;;;35.90;24.15;;;3.60;93.10;;;;;;5095977;28;20032;-83
2021/01/11 09:35:53;;;;;;;;;;;;;;;;;;;;;
2021/01/11 09:42:00;;;;;;;;;;;;;;;;;;;;;
2021/01/11 09:45:01;;;;;;;29.75;20.92;;;3.70;93.00;;;;;;5050298;28;20025;-86
2021/01/11 09:48:05;;;;;;;30.05;20.38;;;3.80;93.00;;;;;;5021458;28;20021;-88
2021/01/11 09:51:02;;;;;;;26.10;19.17;;;3.80;93.00;;;;;;5036891;28;20079;-86
2021/01/11 09:53:37;;;;;;;29.15;21.05;;;3.80;93.00;;;;;;5054517;28;20029;-87
2021/01/11 09:56:41;;;;;;;32.42;22.48;;;3.80;92.90;;;;;;5039790;28;20025;-86
2021/01/11 09:59:48;;;;;;;27.50;20.00;;;3.80;92.90;;;;;;5053257;28;20384;-86
2021/01/11 10:02:36;;;;;;;30.48;21.08;;;3.90;92.90;;;;;;5056961;28;20012;-86
2021/01/11 10:05:35;;;;;;;;;;;;;;;;;;;;;
2021/01/11 10:08:26;;;;;;;26.38;19.55;;;3.90;92.90;;;;;;5052243;28;20035;-86
2021/01/11 10:11:41;;;;;;;;;;;;;;;;;;;;;
2021/01/11 10:17:27;;;;;;;27.30;19.92;;;3.90;92.90;;;;;;5074879;28;20432;-86
2021/01/11 10:20:22;;;;;;;;;;;;;;;;;;;;;
2021/01/11 10:23:46;;;;;;;29.90;20.05;;;3.90;92.90;;;;;;5058701;28;20024;-86
2021/01/11 10:27:06;;;;;;;;;;;;;;;;;;;;;
2021/01/11 10:33:39;;;;;;;23.33;17.80;;;4.00;92.80;;;;;;5069763;28;20039;-85
2021/01/11 10:40:24;;;;;;;26.08;18.15;;;4.10;92.80;;;;;;5064643;28;20044;-86
2021/01/11 10:43:30;;;;;;;26.85;18.83;;;4.10;92.80;;;;;;5063906;28;20037;-86
2021/01/11 10:45:59;;;;;;;25.95;19.90;;;4.10;92.70;;;;;;5065492;28;20472;-86
2021/01/11 10:48:42;;;;;;;;;;;;;;;;;;;;;
2021/01/11 10:54:31;;;;;;;25.38;19.67;;;4.10;92.70;;;;;;5022296;28;20041;-86
2021/01/11 11:04:05;;;;;;;;;;;;;;;;;;;;;
2021/01/11 11:10:34;;;;;;;27.95;19.92;;;4.10;92.60;;;;;;5026523;28;20046;-87
2021/01/11 11:16:50;;;;;;;26.77;19.67;;;4.10;92.60;;;;;;5012097;28;20022;-85
2021/01/11 11:20:04;;;;;;;29.75;20.80;;;4.20;92.60;;;;;;5002916;28;20034;-88
2021/01/11 11:23:36;;;;;;;27.55;20.67;;;4.10;92.50;;;;;;5026036;28;20025;-88
2021/01/11 11:26:21;;;;;;;;;;;4.20;92.60;;;;;;5051033;28;20029;-86
2021/01/11 11:29:04;;;;;;;;;;;;;;;;;;;;;
2021/01/11 11:31:44;;;;;;;28.63;19.85;;;4.20;92.60;;;;;;5053780;28;20039;-87
2021/01/11 11:34:25;;;;;;;27.08;20.17;;;4.20;92.50;;;;;;5035734;28;20029;-86
2021/01/11 11:37:24;;;;;;;;;;;;;;;;;;;;;
2021/01/11 11:40:08;;;;;;;29.42;21.02;;;4.30;92.60;;;;;;5039567;28;20055;-87
2021/01/11 11:42:39;;;;;;;30.40;20.63;;;4.30;92.50;;;;;;5000045;28;20055;-88
2021/01/11 11:45:26;;;;;;;;;;;;;;;;;;;;;
2021/01/11 11:48:21;;;;;;;27.17;18.92;;;4.30;92.40;;;;;;5034854;28;20326;-85
2021/01/11 11:50:57;;;;;;;24.98;18.60;;;4.30;92.40;;;;;;5033306;28;20040;-87
2021/01/11 11:53:58;;;;;;;;;;;;;;;;;;;;;
2021/01/11 11:56:26;;;;;;;25.08;17.73;;;4.30;92.40;;;;;;5019725;28;20031;-87
2021/01/11 11:59:51;;;;;;;;;;;;;;;;;;;;;
2021/01/11 12:02:31;;;;;;;27.67;19.85;;;4.40;92.30;;;;;;5018732;28;20052;-88
2021/01/11 12:05:34;;;;;;;24.33;18.57;;;4.40;92.30;;;;;;5031546;28;20032;-86
2021/01/11 12:08:27;;;;;;;24.10;18.13;;;4.40;92.30;;;;;;5012849;28;20030;-87
2021/01/11 12:11:40;;;;;;;;;;;;;;;;;;;;;
2021/01/11 12:14:14;;;;;;;22.30;16.92;;;4.40;92.30;;;;;;5036953;28;20453;-86
2021/01/11 12:16:48;;;;;;;27.38;19.10;;;4.40;92.30;;;;;;5019550;28;20029;-86
2021/01/11 12:19:41;;;;;;;;;;;;;;;;;;;;;
2021/01/11 12:22:54;;;;;;;23.95;17.15;;;4.40;92.40;;;;;;5037003;28;20017;-86
2021/01/11 12:28:50;;;;;;;23.20;16.95;;;4.50;92.20;;;;;;5036890;28;20025;-87
2021/01/11 12:32:02;;;;;;;;;;;;;;;;;;;;;
2021/01/11 12:34:43;;;;;;;25.15;16.75;;;4.50;92.10;;;;;;5050933;28;20041;-87
2021/01/11 12:37:24;;;;;;;24.23;17.25;;;4.50;92.10;;;;;;5039273;28;20441;-86
2021/01/11 12:40:23;;;;;;;24.95;16.75;;;4.60;92.10;;;;;;5048291;28;20052;-87
2021/01/11 12:49:55;;;;;;;20.60;15.95;;;4.60;92.00;;;;;;5014888;28;20061;-88
2021/01/11 12:53:17;;;;;;;;;;;;;;;;;;;;;
2021/01/11 12:56:30;;;;;;;20.73;15.57;;;4.60;92.00;;;;;;5014235;28;20502;-88
2021/01/11 12:59:52;;;;;;;23.60;16.77;;;4.60;92.00;;;;;;5006357;28;20033;-87
2021/01/11 13:02:43;;;;;;;21.93;17.07;;;4.60;92.00;;;;;;5038548;28;20029;-87
2021/01/11 13:05:28;;;;;;;;;;;;;;;;;;;;;
2021/01/11 13:11:21;;;;;;;22.38;15.65;;;4.60;92.10;;;;;;5033512;28;20491;-88
2021/01/11 13:14:19;;;;;;;24.25;16.60;;;4.60;92.00;;;;;;5040962;28;20025;-88
2021/01/11 13:17:14;;;;;;;23.65;16.58;;;4.60;92.00;;;;;;5033535;28;20025;-88
2021/01/11 13:20:06;;;;;;;;;;;;;;;;;;;;;
2021/01/11 13:23:07;;;;;;;19.10;14.57;;;4.70;92.00;;;;;;5055890;28;20021;-87
2021/01/11 13:26:09;;;;;;;;;;;;;;;;;;;;;
2021/01/11 13:28:39;;;;;;;22.48;15.95;;;4.70;92.00;;;;;;5027097;28;20461;-88
2021/01/11 13:31:17;;;;;;;22.10;16.52;;;4.70;92.00;;;;;;5037510;28;20056;-89
2021/01/11 13:34:13;;;;;;;21.70;15.45;;;4.70;92.00;;;;;;5038733;28;20024;-88
2021/01/11 13:40:39;;;;;;;;;;;;;;;;;;;;;
2021/01/11 13:43:25;;;;;;;24.27;17.30;;;4.80;92.00;;;;;;5035596;28;20036;-88
2021/01/11 13:46:23;;;;;;;23.23;16.42;;;4.80;92.00;;;;;;5017153;28;20029;-89
2021/01/11 13:49:31;;;;;;;;;;;;;;;;;;;;;
2021/01/11 13:52:23;;;;;;;22.55;16.02;;;4.80;92.00;;;;;;5035692;28;20048;-87
2021/01/11 13:55:33;;;;;;;20.08;15.40;;;4.80;92.00;;;;;;5017741;28;20025;-88
2021/01/11 13:58:14;;;;;;;;;;;;;;;;;;;;;
2021/01/11 14:04:08;;;;;;;;;;;;;;;;;;;;;
2021/01/11 14:07:18;;;;;;;;;;;;;;;;;;;;;
2021/01/11 14:10:02;;;;;;;19.63;14.85;;;4.80;92.00;;;;;;5075824;28;20031;-88
2021/01/11 14:12:43;;;;;;;21.33;14.82;;;4.80;91.90;;;;;;5057456;28;20016;-88
2021/01/11 14:15:30;;;;;;;18.33;13.48;;;4.80;92.00;;;;;;5041910;28;20028;-87
2021/01/11 14:18:16;;;;;;;17.25;12.70;;;4.80;92.00;;;;;;5024628;28;20032;-86
2021/01/11 14:20:44;;;;;;;18.15;13.90;;;4.80;91.90;;;;;;5057369;28;20025;-88
2021/01/11 14:23:42;;;;;;;;;;;;;;;;;;;;;
2021/01/11 14:26:39;;;;;;;19.58;13.95;;;4.80;91.90;;;;;;5074101;28;20039;-87
2021/01/11 14:29:17;;;;;;;;;;;;;;;;;;;;;
2021/01/11 14:32:00;;;;;;;17.98;13.40;;;4.90;91.90;;;;;;5074762;28;20031;-87
2021/01/11 14:34:34;;;;;;;16.58;13.00;;;4.90;91.90;;;;;;5056653;28;20028;-88
2021/01/11 14:37:30;;;;;;;17.13;13.32;;;4.90;91.90;;;;;;5054574;28;20031;-87
2021/01/11 14:40:25;;;;;;;18.00;13.50;;;4.90;91.90;;;;;;5048086;28;20102;-87
2021/01/11 14:42:56;;;;;;;17.77;13.60;;;4.90;91.90;;;;;;5076666;28;20078;-88
2021/01/11 14:45:45;;;;;;;16.77;12.75;;;4.90;91.90;;;;;;5077574;28;20036;-87
2021/01/11 14:48:39;;;;;;;15.57;12.32;;;5.00;91.90;;;;;;5076372;28;20115;-87
2021/01/11 14:51:33;;;;;;;19.30;14.23;;;5.00;91.90;;;;;;5079933;28;20036;-87
2021/01/11 14:54:23;;;;;;;;;;;;;;;;;;;;;
2021/01/11 14:57:23;;;;;;;18.40;12.80;;;5.00;91.90;;;;;;5064373;28;20345;-87
2021/01/11 15:00:01;;;;;;;17.40;12.93;;;5.00;91.90;;;;;;5070958;28;20036;-89
2021/01/11 15:02:47;;;;;;;16.17;12.35;;;5.00;91.90;;;;;;5076067;28;20019;-87
2021/01/11 15:05:21;;;;;;;18.02;13.55;;;5.00;91.80;;;;;;5094098;28;20344;-86
2021/01/11 15:13:41;;;;;;;17.35;13.13;;;5.10;91.90;;;;;;5079086;28;20468;-85
2021/01/11 15:16:36;;;;;;;15.18;12.27;;;5.10;91.90;;;;;;5075945;28;20047;-88
2021/01/11 15:19:08;;;;;;;15.75;12.32;;;5.10;91.80;;;;;;5066631;28;20114;-88
2021/01/11 15:21:47;;;;;;;;;;;;;;;;;;;;;
2021/01/11 15:24:54;;;;;;;;;;;;;;;;;;;;;
2021/01/11 15:27:28;;;;;;;17.67;12.70;;;5.10;91.80;;;;;;5079406;28;20024;-86
2021/01/11 15:30:23;;;;;;;19.40;12.77;;;5.10;91.70;;;;;;5075607;28;20527;-86
2021/01/11 15:33:19;;;;;;;18.23;12.45;;;5.20;91.80;;;;;;5059866;28;20059;-88
2021/01/11 15:36:09;;;;;;;17.30;12.40;;;5.20;91.80;;;;;;5077952;28;20012;-88
2021/01/11 15:38:46;;;;;;;15.88;12.73;;;5.20;91.80;;;;;;5068579;28;20013;-87
2021/01/11 15:42:05;;;;;;;15.52;11.80;;;5.10;91.70;;;;;;5048838;28;20407;-87
2021/01/11 15:47:57;;;;;;;;;;;;;;;;;;;;;
2021/01/11 15:54:12;;;;;;;15.18;11.85;;;5.20;91.60;;;;;;5056344;28;20432;-87
2021/01/11 15:56:48;;;;;;;;;;;;;;;;;;;;;
2021/01/11 16:06:03;;;;;;;16.10;11.90;;;5.20;91.70;;;;;;5054520;28;20021;-87
2021/01/11 16:22:01;;;;;;;17.52;13.35;;;5.30;91.60;;;;;;5022844;28;20083;-88
2021/01/11 16:24:32;;;;;;;18.67;13.27;;;5.20;91.50;;;;;;5009907;28;20120;-88
2021/01/11 16:27:00;;;;;;;17.40;14.48;;;5.20;91.60;;;;;;5023390;28;20029;-86
2021/01/11 16:29:34;;;;;;;18.00;13.48;;;5.20;91.60;;;;;;5021649;28;20032;-86
2021/01/11 16:32:02;;;;;;;17.08;13.60;;;5.20;91.60;;;;;;5022952;28;20082;-86
2021/01/11 16:34:36;;;;;;;16.52;13.25;;;5.30;91.60;;;;;;5038790;28;20384;-87
2021/01/11 16:37:09;;;;;;;17.95;14.70;;;5.20;91.60;;;;;;5039018;28;20053;-85
2021/01/11 16:39:40;;;;;;;20.35;15.07;;;5.30;91.60;;;;;;5041126;28;20099;-87
2021/01/11 16:42:17;;;;;;;16.55;14.43;;;5.30;91.60;;;;;;5058682;28;20623;-86
2021/01/11 16:44:48;;;;;;;21.30;15.95;;;5.30;91.60;;;;;;5054306;28;20017;-86
2021/01/11 16:47:37;;;;;;;20.15;15.40;;;5.30;91.60;;;;;;5059339;28;20054;-86
2021/01/11 16:50:02;;;;;;;18.25;15.02;;;5.30;91.60;;;;;;5060405;28;20032;-86
2021/01/11 16:52:55;;;;;;;21.08;15.73;;;5.40;91.60;;;;;;5041787;28;20029;-86
2021/01/11 17:02:26;;;;;;;21.13;16.67;;;5.30;91.50;;;;;;4995281;28;20118;-88
2021/01/11 17:05:04;;;;;;;21.10;16.63;;;5.40;91.60;;;;;;5038025;28;20108;-87
2021/01/11 17:07:42;;;;;;;25.77;17.77;;;5.40;91.60;;;;;;5022243;28;20172;-87
2021/01/11 17:10:28;;;;;;;22.63;16.48;;;5.40;91.60;;;;;;5021961;28;20025;-89
2021/01/11 17:12:57;;;;;;;22.10;17.23;;;5.40;91.60;;;;;;5023094;28;20029;-86
2021/01/11 17:15:55;;;;;;;21.08;17.05;;;5.40;91.60;;;;;;5037058;28;20036;-87
2021/01/11 17:18:24;;;;;;;20.88;17.42;;;5.40;91.60;;;;;;5024768;28;20029;-88
2021/01/11 17:20:50;;;;;;;23.88;17.10;;;5.40;91.60;;;;;;5039127;28;20055;-86
2021/01/11 17:23:18;;;;;;;23.33;18.42;;;5.40;91.60;;;;;;5058013;28;20036;-86
2021/01/11 17:25:44;;;;;;;22.65;16.73;;;5.40;91.60;;;;;;5040935;28;20016;-85
2021/01/11 17:28:13;;;;;;;22.02;17.02;;;5.40;91.60;;;;;;5040558;28;20043;-87
2021/01/11 17:30:42;;;;;;;22.80;18.20;;;5.40;91.60;;;;;;5057731;28;20051;-85
2021/01/11 17:33:28;;;;;;;20.95;17.20;;;5.50;91.60;;;;;;5057643;28;20518;-86
2021/01/11 17:36:04;;;;;;;24.45;17.67;;;5.50;91.60;;;;;;5041663;28;20031;-87
2021/01/11 17:38:33;;;;;;;24.10;18.65;;;5.50;91.90;;;;;;5042073;28;20405;-86
2021/01/11 17:40:59;;;;;;;22.80;17.92;;;5.50;91.60;;;;;;5043383;28;20048;-86
2021/01/11 17:43:24;;;;;;;20.75;16.65;;;5.40;91.60;;;;;;5021015;28;20017;-86
2021/01/11 17:46:01;;;;;;;24.17;18.75;;;5.50;91.70;;;;;;5021006;28;20115;-86
2021/01/11 17:48:27;;;;;;;24.13;19.15;;;5.40;91.60;;;;;;5038148;28;20455;-86
2021/01/11 17:50:53;;;;;;;22.65;17.70;;;5.40;91.60;;;;;;5020568;28;20064;-86
2021/01/11 17:53:22;;;;;;;23.00;18.45;;;5.50;91.70;;;;;;5038168;28;20387;-87
2021/01/11 17:55:56;;;;;;;22.83;18.52;;;5.40;91.70;;;;;;5037275;28;20091;-86
2021/01/11 17:58:33;;;;;;;22.50;19.30;;;5.50;91.70;;;;;;5020491;28;20436;-86
2021/01/11 18:01:12;;;;;;;;;;;;;;;;;;;;;
2021/01/11 18:03:39;;;;;;;24.33;18.40;;;5.50;91.70;;;;;;5038906;28;20020;-87
2021/01/11 18:06:13;;;;;;;26.60;19.75;;;5.50;91.70;;;;;;5037004;28;20021;-85
2021/01/11 18:08:45;;;;;;;24.95;19.30;;;5.50;91.70;;;;;;5023013;28;20033;-86
2021/01/11 18:11:11;;;;;;;23.90;18.80;;;5.50;91.80;;;;;;5004459;28;20028;-86
2021/01/11 18:13:46;;;;;;;24.58;18.73;;;5.50;91.80;;;;;;5036929;28;20032;-86
2021/01/11 18:16:26;;;;;;;23.02;17.98;;;5.50;91.80;;;;;;5021972;28;20059;-88
2021/01/11 18:18:54;;;;;;;26.83;20.23;;;5.50;91.80;;;;;;5036927;28;20021;-86
2021/01/11 18:21:23;;;;;;;27.50;21.27;;;5.50;91.80;;;;;;5037589;28;20392;-87
2021/01/11 18:23:49;;;;;;;27.23;20.35;;;5.50;91.80;;;;;;5036617;28;20116;-87
2021/01/11 18:26:34;;;;;;;27.75;20.80;;;5.50;91.70;;;;;;5036523;28;20017;-85
2021/01/11 18:29:02;;;;;;;24.85;19.83;;;5.50;91.80;;;;;;5036743;28;20107;-85
2021/01/11 18:31:40;;;;;;;;;;;;;;;;;;;;;
2021/01/11 18:34:28;;;;;;;27.17;19.83;;;5.60;91.80;;;;;;5037934;28;20027;-86
2021/01/11 18:36:55;;;;;;;25.25;19.73;;;5.60;91.80;;;;;;5054184;28;20439;-85
2021/01/11 18:39:23;;;;;;;30.25;21.30;;;5.60;91.80;;;;;;5049827;28;20366;-84
2021/01/11 18:41:57;;;;;;;24.85;19.52;;;5.60;91.80;;;;;;5034825;28;20049;-86